sensor_id;sensor_type;location;lat;lon;timestamp;P1;durP1;ratioP1;P2;durP2;ratioP2
14611;SDS011;7392;52.078;11.650;2023-05-21T00:01:43;3.30;;;3.00;;
14611;SDS011;7392;52.078;11.650;2023-05-21T00:04:13;3.10;;;2.90;;
14611;SDS011;7392;52.078;11.650;2023-05-21T00:06:41;2.80;;;2.60;;
14611;SDS011;7392;52.078;11.650;2023-05-21T00:09:09;2.93;;;2.50;;
14611;SDS011;7392;52.078;11.650;2023-05-21T00:11:39;3.00;;;2.80;;
14611;SDS011;7392;52.078;11.650;2023-05-21T00:14:07;3.03;;;2.73;;
14611;SDS011;7392;52.078;11.650;2023-05-21T00:16:35;3.83;;;2.83;;
14611;SDS011;7392;52.078;11.650;2023-05-21T00:19:03;3.47;;;3.17;;
14611;SDS011;7392;52.078;11.650;2023-05-21T00:21:31;3.70;;;3.40;;
14611;SDS011;7392;52.078;11.650;2023-05-21T00:23:59;3.30;;;3.00;;
14611;SDS011;7392;52.078;11.650;2023-05-21T00:26:27;3.00;;;2.80;;
14611;SDS011;7392;52.078;11.650;2023-05-21T00:28:57;3.33;;;3.13;;
14611;SDS011;7392;52.078;11.650;2023-05-21T00:31:25;3.50;;;3.20;;
14611;SDS011;7392;52.078;11.650;2023-05-21T00:33:52;2.80;;;2.60;;
14611;SDS011;7392;52.078;11.650;2023-05-21T00:36:20;3.00;;;2.80;;
14611;SDS011;7392;52.078;11.650;2023-05-21T00:38:49;3.20;;;2.90;;
14611;SDS011;7392;52.078;11.650;2023-05-21T00:41:18;3.17;;;2.97;;
14611;SDS011;7392;52.078;11.650;2023-05-21T00:43:48;2.70;;;2.50;;
14611;SDS011;7392;52.078;11.650;2023-05-21T00:46:18;3.23;;;2.93;;
14611;SDS011;7392;52.078;11.650;2023-05-21T00:48:47;2.93;;;2.73;;
14611;SDS011;7392;52.078;11.650;2023-05-21T00:51:16;3.47;;;3.17;;
14611;SDS011;7392;52.078;11.650;2023-05-21T00:53:48;2.53;;;2.33;;
14611;SDS011;7392;52.078;11.650;2023-05-21T00:56:18;2.77;;;2.57;;
14611;SDS011;7392;52.078;11.650;2023-05-21T00:58:47;3.47;;;3.17;;
14611;SDS011;7392;52.078;11.650;2023-05-21T01:01:18;3.40;;;3.10;;
14611;SDS011;7392;52.078;11.650;2023-05-21T01:03:46;3.50;;;3.20;;
14611;SDS011;7392;52.078;11.650;2023-05-21T01:06:14;3.10;;;2.90;;
14611;SDS011;7392;52.078;11.650;2023-05-21T01:08:42;3.23;;;3.03;;
14611;SDS011;7392;52.078;11.650;2023-05-21T01:11:10;3.13;;;2.87;;
14611;SDS011;7392;52.078;11.650;2023-05-21T01:13:40;3.60;;;3.30;;
14611;SDS011;7392;52.078;11.650;2023-05-21T01:16:08;3.40;;;3.10;;
14611;SDS011;7392;52.078;11.650;2023-05-21T01:18:40;3.03;;;2.83;;
14611;SDS011;7392;52.078;11.650;2023-05-21T01:21:10;3.83;;;3.47;;
14611;SDS011;7392;52.078;11.650;2023-05-21T01:23:40;3.50;;;3.20;;
14611;SDS011;7392;52.078;11.650;2023-05-21T01:26:08;3.80;;;3.43;;
14611;SDS011;7392;52.078;11.650;2023-05-21T01:28:38;3.10;;;2.80;;
14611;SDS011;7392;52.078;11.650;2023-05-21T01:31:15;3.40;;;3.10;;
14611;SDS011;7392;52.078;11.650;2023-05-21T01:33:50;3.17;;;2.93;;
14611;SDS011;7392;52.078;11.650;2023-05-21T01:36:23;3.50;;;3.20;;
14611;SDS011;7392;52.078;11.650;2023-05-21T01:38:59;3.53;;;3.23;;
14611;SDS011;7392;52.078;11.650;2023-05-21T01:41:32;3.60;;;3.30;;
14611;SDS011;7392;52.078;11.650;2023-05-21T01:44:03;3.23;;;2.93;;
14611;SDS011;7392;52.078;11.650;2023-05-21T01:46:33;3.37;;;3.07;;
14611;SDS011;7392;52.078;11.650;2023-05-21T01:49:02;3.67;;;3.30;;
14611;SDS011;7392;52.078;11.650;2023-05-21T01:51:32;3.20;;;2.90;;
14611;SDS011;7392;52.078;11.650;2023-05-21T01:54:03;2.93;;;2.73;;
14611;SDS011;7392;52.078;11.650;2023-05-21T01:56:37;3.30;;;3.00;;
14611;SDS011;7392;52.078;11.650;2023-05-21T01:59:19;3.47;;;3.17;;
14611;SDS011;7392;52.078;11.650;2023-05-21T02:01:47;3.50;;;3.20;;
14611;SDS011;7392;52.078;11.650;2023-05-21T02:04:14;3.50;;;3.20;;
14611;SDS011;7392;52.078;11.650;2023-05-21T02:06:42;3.63;;;3.33;;
14611;SDS011;7392;52.078;11.650;2023-05-21T02:09:11;3.37;;;3.13;;
14611;SDS011;7392;52.078;11.650;2023-05-21T02:11:39;3.70;;;3.40;;
14611;SDS011;7392;52.078;11.650;2023-05-21T02:14:07;3.67;;;3.37;;
14611;SDS011;7392;52.078;11.650;2023-05-21T02:16:35;3.70;;;3.40;;
14611;SDS011;7392;52.078;11.650;2023-05-21T02:19:03;3.20;;;3.00;;
14611;SDS011;7392;52.078;11.650;2023-05-21T02:21:32;3.33;;;3.03;;
14611;SDS011;7392;52.078;11.650;2023-05-21T02:23:59;3.33;;;3.03;;
14611;SDS011;7392;52.078;11.650;2023-05-21T02:26:28;3.80;;;3.37;;
14611;SDS011;7392;52.078;11.650;2023-05-21T02:28:56;3.57;;;3.27;;
14611;SDS011;7392;52.078;11.650;2023-05-21T02:31:24;3.63;;;3.33;;
14611;SDS011;7392;52.078;11.650;2023-05-21T02:33:52;3.77;;;3.27;;
14611;SDS011;7392;52.078;11.650;2023-05-21T02:36:20;3.63;;;3.33;;
14611;SDS011;7392;52.078;11.650;2023-05-21T02:38:47;3.70;;;3.40;;
14611;SDS011;7392;52.078;11.650;2023-05-21T02:41:15;3.70;;;3.40;;
14611;SDS011;7392;52.078;11.650;2023-05-21T02:43:44;3.27;;;2.93;;
14611;SDS011;7392;52.078;11.650;2023-05-21T02:46:13;3.17;;;2.87;;
14611;SDS011;7392;52.078;11.650;2023-05-21T02:48:41;3.50;;;3.20;;
14611;SDS011;7392;52.078;11.650;2023-05-21T02:51:09;3.60;;;3.30;;
14611;SDS011;7392;52.078;11.650;2023-05-21T02:53:37;3.03;;;2.77;;
14611;SDS011;7392;52.078;11.650;2023-05-21T02:56:05;3.30;;;3.00;;
14611;SDS011;7392;52.078;11.650;2023-05-21T02:58:33;3.27;;;2.97;;
14611;SDS011;7392;52.078;11.650;2023-05-21T03:01:02;2.83;;;2.63;;
14611;SDS011;7392;52.078;11.650;2023-05-21T03:03:30;3.07;;;2.87;;
14611;SDS011;7392;52.078;11.650;2023-05-21T03:05:58;3.47;;;3.17;;
14611;SDS011;7392;52.078;11.650;2023-05-21T03:08:26;3.30;;;3.00;;
14611;SDS011;7392;52.078;11.650;2023-05-21T03:10:54;3.60;;;3.30;;
14611;SDS011;7392;52.078;11.650;2023-05-21T03:13:22;3.70;;;3.40;;
14611;SDS011;7392;52.078;11.650;2023-05-21T03:15:50;3.50;;;3.20;;
14611;SDS011;7392;52.078;11.650;2023-05-21T03:18:22;3.70;;;3.40;;
14611;SDS011;7392;52.078;11.650;2023-05-21T03:20:51;3.30;;;3.00;;
14611;SDS011;7392;52.078;11.650;2023-05-21T03:23:19;3.20;;;2.90;;
14611;SDS011;7392;52.078;11.650;2023-05-21T03:25:47;3.03;;;2.80;;
14611;SDS011;7392;52.078;11.650;2023-05-21T03:28:16;3.53;;;3.23;;
14611;SDS011;7392;52.078;11.650;2023-05-21T03:30:46;4.03;;;3.30;;
14611;SDS011;7392;52.078;11.650;2023-05-21T03:33:42;3.50;;;3.20;;
14611;SDS011;7392;52.078;11.650;2023-05-21T03:36:20;3.87;;;3.57;;
14611;SDS011;7392;52.078;11.650;2023-05-21T03:38:48;4.07;;;3.67;;
14611;SDS011;7392;52.078;11.650;2023-05-21T03:41:17;3.90;;;3.60;;
14611;SDS011;7392;52.078;11.650;2023-05-21T03:43:49;3.57;;;3.27;;
14611;SDS011;7392;52.078;11.650;2023-05-21T03:46:19;3.30;;;3.00;;
14611;SDS011;7392;52.078;11.650;2023-05-21T03:49:02;3.27;;;2.97;;
14611;SDS011;7392;52.078;11.650;2023-05-21T03:51:32;3.60;;;3.30;;
14611;SDS011;7392;52.078;11.650;2023-05-21T03:54:00;3.83;;;3.53;;
14611;SDS011;7392;52.078;11.650;2023-05-21T03:56:28;4.17;;;3.77;;
14611;SDS011;7392;52.078;11.650;2023-05-21T03:58:56;3.93;;;3.63;;
14611;SDS011;7392;52.078;11.650;2023-05-21T04:01:24;4.07;;;3.70;;
14611;SDS011;7392;52.078;11.650;2023-05-21T04:03:54;4.33;;;3.93;;
14611;SDS011;7392;52.078;11.650;2023-05-21T04:06:24;3.97;;;3.67;;
14611;SDS011;7392;52.078;11.650;2023-05-21T04:08:53;3.80;;;3.50;;
14611;SDS011;7392;52.078;11.650;2023-05-21T04:11:21;3.93;;;3.63;;
14611;SDS011;7392;52.078;11.650;2023-05-21T04:13:48;4.43;;;4.03;;
14611;SDS011;7392;52.078;11.650;2023-05-21T04:16:16;4.67;;;4.27;;
14611;SDS011;7392;52.078;11.650;2023-05-21T04:18:45;4.40;;;4.00;;
14611;SDS011;7392;52.078;11.650;2023-05-21T04:21:14;4.93;;;4.43;;
14611;SDS011;7392;52.078;11.650;2023-05-21T04:23:44;4.17;;;3.83;;
14611;SDS011;7392;52.078;11.650;2023-05-21T04:26:21;4.53;;;4.13;;
14611;SDS011;7392;52.078;11.650;2023-05-21T04:28:49;4.27;;;3.97;;
14611;SDS011;7392;52.078;11.650;2023-05-21T04:31:16;4.50;;;4.10;;
14611;SDS011;7392;52.078;11.650;2023-05-21T04:33:44;3.93;;;3.63;;
14611;SDS011;7392;52.078;11.650;2023-05-21T04:36:12;4.80;;;4.40;;
14611;SDS011;7392;52.078;11.650;2023-05-21T04:38:44;4.67;;;4.27;;
14611;SDS011;7392;52.078;11.650;2023-05-21T04:41:12;4.90;;;4.50;;
14611;SDS011;7392;52.078;11.650;2023-05-21T04:43:40;4.50;;;4.10;;
14611;SDS011;7392;52.078;11.650;2023-05-21T04:46:11;4.07;;;3.73;;
14611;SDS011;7392;52.078;11.650;2023-05-21T04:48:39;5.00;;;4.60;;
14611;SDS011;7392;52.078;11.650;2023-05-21T04:51:07;4.50;;;4.10;;
14611;SDS011;7392;52.078;11.650;2023-05-21T04:53:35;4.57;;;4.17;;
14611;SDS011;7392;52.078;11.650;2023-05-21T04:56:05;4.30;;;4.00;;
14611;SDS011;7392;52.078;11.650;2023-05-21T04:58:35;4.70;;;4.30;;
14611;SDS011;7392;52.078;11.650;2023-05-21T05:01:05;4.63;;;4.23;;
14611;SDS011;7392;52.078;11.650;2023-05-21T05:03:34;4.63;;;4.23;;
14611;SDS011;7392;52.078;11.650;2023-05-21T05:06:02;4.60;;;4.20;;
14611;SDS011;7392;52.078;11.650;2023-05-21T05:08:32;4.50;;;4.10;;
14611;SDS011;7392;52.078;11.650;2023-05-21T05:11:00;4.60;;;4.20;;
14611;SDS011;7392;52.078;11.650;2023-05-21T05:13:33;4.70;;;4.30;;
14611;SDS011;7392;52.078;11.650;2023-05-21T05:16:01;4.70;;;4.30;;
14611;SDS011;7392;52.078;11.650;2023-05-21T05:18:29;4.97;;;4.57;;
14611;SDS011;7392;52.078;11.650;2023-05-21T05:20:57;4.73;;;4.33;;
14611;SDS011;7392;52.078;11.650;2023-05-21T05:23:25;5.10;;;4.70;;
14611;SDS011;7392;52.078;11.650;2023-05-21T05:25:53;4.47;;;4.10;;
14611;SDS011;7392;52.078;11.650;2023-05-21T05:28:20;4.77;;;4.37;;
14611;SDS011;7392;52.078;11.650;2023-05-21T05:30:50;4.77;;;4.37;;
14611;SDS011;7392;52.078;11.650;2023-05-21T05:33:22;5.47;;;4.97;;
14611;SDS011;7392;52.078;11.650;2023-05-21T05:35:50;5.23;;;4.83;;
14611;SDS011;7392;52.078;11.650;2023-05-21T05:38:18;6.43;;;5.93;;
14611;SDS011;7392;52.078;11.650;2023-05-21T05:40:46;6.03;;;5.53;;
14611;SDS011;7392;52.078;11.650;2023-05-21T05:43:14;6.67;;;6.07;;
14611;SDS011;7392;52.078;11.650;2023-05-21T05:45:45;7.00;;;6.40;;
14611;SDS011;7392;52.078;11.650;2023-05-21T05:48:21;7.40;;;6.70;;
14611;SDS011;7392;52.078;11.650;2023-05-21T05:50:52;8.77;;;7.87;;
14611;SDS011;7392;52.078;11.650;2023-05-21T05:53:25;9.40;;;8.50;;
14611;SDS011;7392;52.078;11.650;2023-05-21T05:55:58;9.03;;;8.13;;
14611;SDS011;7392;52.078;11.650;2023-05-21T05:58:28;8.90;;;8.10;;
14611;SDS011;7392;52.078;11.650;2023-05-21T06:01:09;9.13;;;8.10;;
14611;SDS011;7392;52.078;11.650;2023-05-21T06:03:41;9.73;;;8.83;;
14611;SDS011;7392;52.078;11.650;2023-05-21T06:06:18;9.60;;;8.70;;
14611;SDS011;7392;52.078;11.650;2023-05-21T06:08:49;10.30;;;9.40;;
14611;SDS011;7392;52.078;11.650;2023-05-21T06:11:21;10.70;;;9.80;;
14611;SDS011;7392;52.078;11.650;2023-05-21T06:14:04;10.87;;;9.87;;
14611;SDS011;7392;52.078;11.650;2023-05-21T06:16:36;11.00;;;9.90;;
14611;SDS011;7392;52.078;11.650;2023-05-21T06:19:06;10.23;;;9.33;;
14611;SDS011;7392;52.078;11.650;2023-05-21T06:21:37;11.63;;;10.53;;
14611;SDS011;7392;52.078;11.650;2023-05-21T06:24:06;10.90;;;9.80;;
14611;SDS011;7392;52.078;11.650;2023-05-21T06:26:34;10.83;;;9.83;;
14611;SDS011;7392;52.078;11.650;2023-05-21T06:29:08;10.67;;;9.70;;
14611;SDS011;7392;52.078;11.650;2023-05-21T06:31:41;10.50;;;9.50;;
14611;SDS011;7392;52.078;11.650;2023-05-21T06:34:16;11.57;;;10.47;;
14611;SDS011;7392;52.078;11.650;2023-05-21T06:36:49;10.80;;;9.80;;
14611;SDS011;7392;52.078;11.650;2023-05-21T06:39:21;10.30;;;9.30;;
14611;SDS011;7392;52.078;11.650;2023-05-21T06:41:53;10.90;;;9.90;;
14611;SDS011;7392;52.078;11.650;2023-05-21T06:44:40;10.00;;;9.10;;
14611;SDS011;7392;52.078;11.650;2023-05-21T06:47:32;9.93;;;9.00;;
14611;SDS011;7392;52.078;11.650;2023-05-21T06:50:03;9.50;;;8.70;;
14611;SDS011;7392;52.078;11.650;2023-05-21T06:52:38;8.70;;;8.00;;
14611;SDS011;7392;52.078;11.650;2023-05-21T06:55:09;8.50;;;7.70;;
14611;SDS011;7392;52.078;11.650;2023-05-21T06:58:00;8.80;;;8.00;;
14611;SDS011;7392;52.078;11.650;2023-05-21T07:00:29;9.40;;;8.50;;
14611;SDS011;7392;52.078;11.650;2023-05-21T07:02:57;9.13;;;8.33;;
14611;SDS011;7392;52.078;11.650;2023-05-21T07:05:38;8.70;;;7.90;;
14611;SDS011;7392;52.078;11.650;2023-05-21T07:08:07;9.07;;;8.27;;
14611;SDS011;7392;52.078;11.650;2023-05-21T07:10:37;9.10;;;8.30;;
14611;SDS011;7392;52.078;11.650;2023-05-21T07:13:07;9.77;;;8.87;;
14611;SDS011;7392;52.078;11.650;2023-05-21T07:15:40;9.37;;;8.57;;
14611;SDS011;7392;52.078;11.650;2023-05-21T07:18:21;9.10;;;8.27;;
14611;SDS011;7392;52.078;11.650;2023-05-21T07:21:00;8.23;;;7.53;;
14611;SDS011;7392;52.078;11.650;2023-05-21T07:23:35;7.27;;;6.67;;
14611;SDS011;7392;52.078;11.650;2023-05-21T07:26:07;7.77;;;7.07;;
14611;SDS011;7392;52.078;11.650;2023-05-21T07:28:36;8.30;;;7.60;;
14611;SDS011;7392;52.078;11.650;2023-05-21T07:31:09;7.23;;;6.63;;
14611;SDS011;7392;52.078;11.650;2023-05-21T07:33:54;6.97;;;6.37;;
14611;SDS011;7392;52.078;11.650;2023-05-21T07:36:29;6.27;;;5.77;;
14611;SDS011;7392;52.078;11.650;2023-05-21T07:39:02;6.87;;;6.37;;
14611;SDS011;7392;52.078;11.650;2023-05-21T07:41:39;7.80;;;7.10;;
14611;SDS011;7392;52.078;11.650;2023-05-21T07:44:08;7.60;;;7.00;;
14611;SDS011;7392;52.078;11.650;2023-05-21T07:46:44;8.17;;;7.47;;
14611;SDS011;7392;52.078;11.650;2023-05-21T07:49:15;7.60;;;6.90;;
14611;SDS011;7392;52.078;11.650;2023-05-21T07:51:50;9.33;;;8.43;;
14611;SDS011;7392;52.078;11.650;2023-05-21T07:54:18;9.93;;;9.07;;
14611;SDS011;7392;52.078;11.650;2023-05-21T07:56:56;9.00;;;8.20;;
14611;SDS011;7392;52.078;11.650;2023-05-21T07:59:45;9.27;;;8.47;;
14611;SDS011;7392;52.078;11.650;2023-05-21T08:02:13;8.90;;;8.13;;
14611;SDS011;7392;52.078;11.650;2023-05-21T08:04:40;9.17;;;8.27;;
14611;SDS011;7392;52.078;11.650;2023-05-21T08:07:11;9.10;;;8.33;;
14611;SDS011;7392;52.078;11.650;2023-05-21T08:09:42;9.40;;;8.60;;
14611;SDS011;7392;52.078;11.650;2023-05-21T08:12:10;9.00;;;8.20;;
14611;SDS011;7392;52.078;11.650;2023-05-21T08:14:41;10.00;;;9.10;;
14611;SDS011;7392;52.078;11.650;2023-05-21T08:17:11;9.43;;;8.63;;
14611;SDS011;7392;52.078;11.650;2023-05-21T08:19:39;12.77;;;11.53;;
14611;SDS011;7392;52.078;11.650;2023-05-21T08:22:08;13.87;;;12.57;;
14611;SDS011;7392;52.078;11.650;2023-05-21T08:24:40;12.90;;;11.70;;
14611;SDS011;7392;52.078;11.650;2023-05-21T08:27:08;13.33;;;12.13;;
14611;SDS011;7392;52.078;11.650;2023-05-21T08:29:36;14.80;;;13.30;;
14611;SDS011;7392;52.078;11.650;2023-05-21T08:32:05;14.50;;;13.20;;
14611;SDS011;7392;52.078;11.650;2023-05-21T08:34:35;13.07;;;11.97;;
14611;SDS011;7392;52.078;11.650;2023-05-21T08:37:19;12.90;;;11.73;;
14611;SDS011;7392;52.078;11.650;2023-05-21T08:40:15;11.57;;;10.57;;
14611;SDS011;7392;52.078;11.650;2023-05-21T08:42:43;14.00;;;12.80;;
14611;SDS011;7392;52.078;11.650;2023-05-21T08:45:19;13.37;;;12.17;;
14611;SDS011;7392;52.078;11.650;2023-05-21T08:47:51;12.33;;;11.33;;
14611;SDS011;7392;52.078;11.650;2023-05-21T08:50:25;12.83;;;11.73;;
14611;SDS011;7392;52.078;11.650;2023-05-21T08:52:56;12.87;;;11.67;;
14611;SDS011;7392;52.078;11.650;2023-05-21T08:55:28;12.20;;;11.10;;
14611;SDS011;7392;52.078;11.650;2023-05-21T08:57:59;10.73;;;9.83;;
14611;SDS011;7392;52.078;11.650;2023-05-21T09:00:27;11.27;;;10.37;;
14611;SDS011;7392;52.078;11.650;2023-05-21T09:02:55;10.87;;;9.87;;
14611;SDS011;7392;52.078;11.650;2023-05-21T09:05:26;10.40;;;9.50;;
14611;SDS011;7392;52.078;11.650;2023-05-21T09:07:58;9.27;;;8.47;;
14611;SDS011;7392;52.078;11.650;2023-05-21T09:10:40;10.10;;;9.20;;
14611;SDS011;7392;52.078;11.650;2023-05-21T09:13:12;9.87;;;9.07;;
14611;SDS011;7392;52.078;11.650;2023-05-21T09:15:43;9.63;;;8.83;;
14611;SDS011;7392;52.078;11.650;2023-05-21T09:18:11;9.30;;;8.53;;
14611;SDS011;7392;52.078;11.650;2023-05-21T09:21:24;9.53;;;8.70;;
14611;SDS011;7392;52.078;11.650;2023-05-21T09:23:57;9.57;;;8.77;;
14611;SDS011;7392;52.078;11.650;2023-05-21T09:26:29;9.67;;;8.87;;
14611;SDS011;7392;52.078;11.650;2023-05-21T09:29:01;9.20;;;8.40;;
14611;SDS011;7392;52.078;11.650;2023-05-21T09:31:29;9.13;;;8.33;;
14611;SDS011;7392;52.078;11.650;2023-05-21T09:33:59;9.30;;;8.40;;
14611;SDS011;7392;52.078;11.650;2023-05-21T09:36:29;8.77;;;8.07;;
14611;SDS011;7392;52.078;11.650;2023-05-21T09:38:59;9.00;;;8.20;;
14611;SDS011;7392;52.078;11.650;2023-05-21T09:41:33;8.70;;;7.90;;
14611;SDS011;7392;52.078;11.650;2023-05-21T09:44:03;8.75;;;8.05;;
14611;SDS011;7392;52.078;11.650;2023-05-21T09:46:36;8.70;;;8.00;;
14611;SDS011;7392;52.078;11.650;2023-05-21T09:49:05;9.60;;;8.80;;
14611;SDS011;7392;52.078;11.650;2023-05-21T09:51:37;9.48;;;8.68;;
14611;SDS011;7392;52.078;11.650;2023-05-21T09:54:05;8.25;;;7.55;;
14611;SDS011;7392;52.078;11.650;2023-05-21T09:56:34;8.80;;;8.10;;
14611;SDS011;7392;52.078;11.650;2023-05-21T09:59:02;9.05;;;8.35;;
14611;SDS011;7392;52.078;11.650;2023-05-21T10:01:30;8.65;;;7.95;;
14611;SDS011;7392;52.078;11.650;2023-05-21T10:04:00;9.50;;;8.68;;
14611;SDS011;7392;52.078;11.650;2023-05-21T10:06:29;8.60;;;7.90;;
14611;SDS011;7392;52.078;11.650;2023-05-21T10:09:00;9.38;;;8.57;;
14611;SDS011;7392;52.078;11.650;2023-05-21T10:11:32;8.55;;;7.75;;
14611;SDS011;7392;52.078;11.650;2023-05-21T10:14:03;8.57;;;7.85;;
14611;SDS011;7392;52.078;11.650;2023-05-21T10:16:33;8.38;;;7.68;;
14611;SDS011;7392;52.078;11.650;2023-05-21T10:19:02;7.22;;;6.63;;
14611;SDS011;7392;52.078;11.650;2023-05-21T10:21:30;7.90;;;7.30;;
14611;SDS011;7392;52.078;11.650;2023-05-21T10:24:00;7.47;;;6.88;;
14611;SDS011;7392;52.078;11.650;2023-05-21T10:26:29;7.78;;;7.07;;
14611;SDS011;7392;52.078;11.650;2023-05-21T10:28:58;8.57;;;7.88;;
14611;SDS011;7392;52.078;11.650;2023-05-21T10:31:28;8.30;;;7.55;;
14611;SDS011;7392;52.078;11.650;2023-05-21T10:33:56;7.65;;;7.05;;
14611;SDS011;7392;52.078;11.650;2023-05-21T10:36:24;8.20;;;7.40;;
14611;SDS011;7392;52.078;11.650;2023-05-21T10:38:57;7.50;;;6.90;;
14611;SDS011;7392;52.078;11.650;2023-05-21T10:41:27;8.23;;;7.60;;
14611;SDS011;7392;52.078;11.650;2023-05-21T10:44:06;8.57;;;7.78;;
14611;SDS011;7392;52.078;11.650;2023-05-21T10:46:48;8.32;;;7.60;;
14611;SDS011;7392;52.078;11.650;2023-05-21T10:49:40;8.38;;;7.57;;
14611;SDS011;7392;52.078;11.650;2023-05-21T10:52:23;7.85;;;7.20;;
14611;SDS011;7392;52.078;11.650;2023-05-21T10:55:06;7.57;;;6.97;;
14611;SDS011;7392;52.078;11.650;2023-05-21T11:00:38;7.75;;;7.05;;
14611;SDS011;7392;52.078;11.650;2023-05-21T11:03:06;7.78;;;7.18;;
14611;SDS011;7392;52.078;11.650;2023-05-21T11:05:37;7.32;;;6.63;;
14611;SDS011;7392;52.078;11.650;2023-05-21T11:08:17;8.23;;;7.43;;
14611;SDS011;7392;52.078;11.650;2023-05-21T11:10:50;7.38;;;6.78;;
14611;SDS011;7392;52.078;11.650;2023-05-21T11:13:19;7.53;;;6.93;;
14611;SDS011;7392;52.078;11.650;2023-05-21T11:16:08;7.63;;;7.03;;
14611;SDS011;7392;52.078;11.650;2023-05-21T11:18:55;8.18;;;7.40;;
14611;SDS011;7392;52.078;11.650;2023-05-21T11:21:30;7.70;;;7.10;;
14611;SDS011;7392;52.078;11.650;2023-05-21T11:24:01;7.68;;;6.97;;
14611;SDS011;7392;52.078;11.650;2023-05-21T11:29:42;8.20;;;7.43;;
14611;SDS011;7392;52.078;11.650;2023-05-21T11:32:12;7.20;;;6.65;;
14611;SDS011;7392;52.078;11.650;2023-05-21T11:34:43;7.18;;;6.57;;
14611;SDS011;7392;52.078;11.650;2023-05-21T11:37:22;7.57;;;6.88;;
14611;SDS011;7392;52.078;11.650;2023-05-21T11:39:52;7.60;;;6.95;;
14611;SDS011;7392;52.078;11.650;2023-05-21T11:42:30;7.28;;;6.63;;
14611;SDS011;7392;52.078;11.650;2023-05-21T11:44:59;7.38;;;6.68;;
14611;SDS011;7392;52.078;11.650;2023-05-21T11:47:30;7.68;;;7.07;;
14611;SDS011;7392;52.078;11.650;2023-05-21T11:49:59;8.68;;;7.95;;
14611;SDS011;7392;52.078;11.650;2023-05-21T11:52:27;10.75;;;9.73;;
14611;SDS011;7392;52.078;11.650;2023-05-21T11:54:57;9.32;;;8.43;;
14611;SDS011;7392;52.078;11.650;2023-05-21T11:57:25;9.30;;;8.50;;
14611;SDS011;7392;52.078;11.650;2023-05-21T11:59:56;8.07;;;7.38;;
14611;SDS011;7392;52.078;11.650;2023-05-21T12:02:25;8.43;;;7.72;;
14611;SDS011;7392;52.078;11.650;2023-05-21T12:04:56;9.35;;;8.57;;
14611;SDS011;7392;52.078;11.650;2023-05-21T12:07:26;8.35;;;7.65;;
14611;SDS011;7392;52.078;11.650;2023-05-21T12:09:55;8.10;;;7.40;;
14611;SDS011;7392;52.078;11.650;2023-05-21T12:12:23;7.60;;;7.00;;
14611;SDS011;7392;52.078;11.650;2023-05-21T12:15:11;7.10;;;6.53;;
14611;SDS011;7392;52.078;11.650;2023-05-21T12:17:40;7.82;;;7.22;;
14611;SDS011;7392;52.078;11.650;2023-05-21T12:20:11;7.80;;;7.20;;
14611;SDS011;7392;52.078;11.650;2023-05-21T12:22:41;9.48;;;7.90;;
14611;SDS011;7392;52.078;11.650;2023-05-21T12:25:10;8.05;;;7.40;;
14611;SDS011;7392;52.078;11.650;2023-05-21T12:27:38;8.27;;;7.57;;
14611;SDS011;7392;52.078;11.650;2023-05-21T12:30:07;8.40;;;7.70;;
14611;SDS011;7392;52.078;11.650;2023-05-21T12:32:37;8.27;;;7.55;;
14611;SDS011;7392;52.078;11.650;2023-05-21T12:35:11;8.00;;;7.30;;
14611;SDS011;7392;52.078;11.650;2023-05-21T12:37:47;8.30;;;7.60;;
14611;SDS011;7392;52.078;11.650;2023-05-21T12:40:16;7.88;;;7.15;;
14611;SDS011;7392;52.078;11.650;2023-05-21T12:42:44;8.10;;;7.30;;
14611;SDS011;7392;52.078;11.650;2023-05-21T12:45:12;9.13;;;8.20;;
14611;SDS011;7392;52.078;11.650;2023-05-21T12:47:46;9.63;;;8.60;;
14611;SDS011;7392;52.078;11.650;2023-05-21T12:50:18;8.90;;;8.10;;
14611;SDS011;7392;52.078;11.650;2023-05-21T12:52:47;8.30;;;7.60;;
14611;SDS011;7392;52.078;11.650;2023-05-21T12:55:15;8.88;;;8.00;;
14611;SDS011;7392;52.078;11.650;2023-05-21T12:57:43;8.07;;;7.38;;
14611;SDS011;7392;52.078;11.650;2023-05-21T13:00:11;8.77;;;7.97;;
14611;SDS011;7392;52.078;11.650;2023-05-21T13:02:40;8.07;;;7.40;;
14611;SDS011;7392;52.078;11.650;2023-05-21T13:05:10;8.50;;;7.80;;
14611;SDS011;7392;52.078;11.650;2023-05-21T13:07:44;9.30;;;8.50;;
14611;SDS011;7392;52.078;11.650;2023-05-21T13:10:13;8.00;;;7.40;;
14611;SDS011;7392;52.078;11.650;2023-05-21T13:12:42;8.45;;;7.72;;
14611;SDS011;7392;52.078;11.650;2023-05-21T13:15:11;8.60;;;7.90;;
14611;SDS011;7392;52.078;11.650;2023-05-21T13:17:39;9.27;;;8.52;;
14611;SDS011;7392;52.078;11.650;2023-05-21T13:20:07;8.45;;;7.75;;
14611;SDS011;7392;52.078;11.650;2023-05-21T13:22:38;8.13;;;7.43;;
14611;SDS011;7392;52.078;11.650;2023-05-21T13:25:10;7.90;;;7.20;;
14611;SDS011;7392;52.078;11.650;2023-05-21T13:27:41;7.53;;;6.93;;
14611;SDS011;7392;52.078;11.650;2023-05-21T13:30:09;6.53;;;6.03;;
14611;SDS011;7392;52.078;11.650;2023-05-21T13:32:38;7.53;;;6.82;;
14611;SDS011;7392;52.078;11.650;2023-05-21T13:35:08;8.32;;;7.65;;
14611;SDS011;7392;52.078;11.650;2023-05-21T13:37:37;7.53;;;6.93;;
14611;SDS011;7392;52.078;11.650;2023-05-21T13:40:07;7.95;;;7.28;;
14611;SDS011;7392;52.078;11.650;2023-05-21T13:42:38;7.88;;;7.28;;
14611;SDS011;7392;52.078;11.650;2023-05-21T13:45:06;7.13;;;6.63;;
14611;SDS011;7392;52.078;11.650;2023-05-21T13:47:36;7.40;;;6.80;;
14611;SDS011;7392;52.078;11.650;2023-05-21T13:50:06;6.57;;;6.07;;
14611;SDS011;7392;52.078;11.650;2023-05-21T13:52:36;7.25;;;6.65;;
14611;SDS011;7392;52.078;11.650;2023-05-21T13:55:05;7.32;;;6.72;;
14611;SDS011;7392;52.078;11.650;2023-05-21T13:57:33;8.57;;;7.78;;
14611;SDS011;7392;52.078;11.650;2023-05-21T14:00:03;8.98;;;8.27;;
14611;SDS011;7392;52.078;11.650;2023-05-21T14:02:35;9.05;;;8.30;;
14611;SDS011;7392;52.078;11.650;2023-05-21T14:05:03;8.30;;;7.60;;
14611;SDS011;7392;52.078;11.650;2023-05-21T14:07:31;8.60;;;7.75;;
14611;SDS011;7392;52.078;11.650;2023-05-21T14:09:59;8.40;;;7.70;;
14611;SDS011;7392;52.078;11.650;2023-05-21T14:12:28;8.25;;;7.55;;
14611;SDS011;7392;52.078;11.650;2023-05-21T14:14:56;7.72;;;7.13;;
14611;SDS011;7392;52.078;11.650;2023-05-21T14:17:25;6.93;;;6.43;;
14611;SDS011;7392;52.078;11.650;2023-05-21T14:19:53;7.28;;;6.68;;
14611;SDS011;7392;52.078;11.650;2023-05-21T14:22:21;7.22;;;6.63;;
14611;SDS011;7392;52.078;11.650;2023-05-21T14:24:49;7.80;;;7.20;;
14611;SDS011;7392;52.078;11.650;2023-05-21T14:27:17;7.97;;;7.32;;
14611;SDS011;7392;52.078;11.650;2023-05-21T14:29:45;7.90;;;7.20;;
14611;SDS011;7392;52.078;11.650;2023-05-21T14:32:13;7.00;;;6.45;;
14611;SDS011;7392;52.078;11.650;2023-05-21T14:34:43;7.82;;;7.22;;
14611;SDS011;7392;52.078;11.650;2023-05-21T14:37:11;7.65;;;6.95;;
14611;SDS011;7392;52.078;11.650;2023-05-21T14:39:39;7.68;;;6.97;;
14611;SDS011;7392;52.078;11.650;2023-05-21T14:42:07;7.40;;;6.70;;
14611;SDS011;7392;52.078;11.650;2023-05-21T14:44:34;7.55;;;6.95;;
14611;SDS011;7392;52.078;11.650;2023-05-21T14:47:02;7.55;;;6.82;;
14611;SDS011;7392;52.078;11.650;2023-05-21T14:49:30;7.72;;;7.03;;
14611;SDS011;7392;52.078;11.650;2023-05-21T14:52:00;8.00;;;7.30;;
14611;SDS011;7392;52.078;11.650;2023-05-21T14:54:27;7.32;;;6.72;;
14611;SDS011;7392;52.078;11.650;2023-05-21T14:56:55;6.85;;;6.32;;
14611;SDS011;7392;52.078;11.650;2023-05-21T14:59:23;6.97;;;6.38;;
14611;SDS011;7392;52.078;11.650;2023-05-21T15:01:50;7.55;;;6.85;;
14611;SDS011;7392;52.078;11.650;2023-05-21T15:04:18;7.05;;;6.47;;
14611;SDS011;7392;52.078;11.650;2023-05-21T15:06:46;6.65;;;6.15;;
14611;SDS011;7392;52.078;11.650;2023-05-21T15:09:15;6.55;;;5.97;;
14611;SDS011;7392;52.078;11.650;2023-05-21T15:11:43;6.47;;;5.97;;
14611;SDS011;7392;52.078;11.650;2023-05-21T15:14:11;6.50;;;5.88;;